Data for 11/23/2005

Time Sea-Level Adjusted Pressure Absolute Pressure Temperature Relative Humidity Dew Point   
(mb) (inHg) (mb) (inHg) (C) (F) (%) (C) (F)
00:05 1023 30.21 852 25.16 3.4 38.1 52 -5.6 22
00:10 1023 30.21 852 25.16 2.7 36.9 55 -5.4 22.2
00:15 1023 30.21 852 25.16 2.2 35.9 56 -5.6 21.8
00:20 1023 30.21 852 25.16 2.1 35.9 56 -5.8 21.6
00:25 1023 30.21 852 25.16 2.1 35.7 56 -5.8 21.6
00:30 1023 30.21 852 25.16 2.3 36.1 55 -5.8 21.6
00:35 1023 30.21 852 25.16 2.2 35.9 56 -5.8 21.6
00:40 1023 30.21 852 25.16 2.1 35.7 57 -5.6 21.9
00:45 1023 30.21 852 25.16 2 35.6 55 -6.1 21.1
00:50 1023 30.21 852 25.16 2.6 36.6 54 -5.7 21.7
00:55 1023 30.21 852 25.16 2 35.6 57 -5.7 21.7
01:00 1023 30.21 852 25.16 2.2 35.9 53 -6.5 20.4
01:05 1023 30.21 852 25.16 2.6 36.6 54 -5.8 21.5
01:10 1023 30.21 852 25.16 2.5 36.5 53 -6 21.1
01:15 1023 30.21 852 25.16 2.8 37 52 -6.1 21
01:20 1022 30.18 852 25.16 3 37.5 51 -6.1 21
01:25 1023 30.21 852 25.16 2.5 36.5 55 -5.6 21.8
01:30 1022 30.18 852 25.16 2.5 36.5 52 -6.3 20.6
01:35 1022 30.18 852 25.16 3.2 37.8 49 -6.4 20.5
01:40 1022 30.18 852 25.16 3.3 37.9 51 -6 21.2
01:45 1023 30.21 852 25.16 2.2 36 56 -5.6 22
01:50 1022 30.18 852 25.16 1.7 35.1 56 -6.2 20.9
01:55 1023 30.21 852 25.16 1.4 34.6 59 -5.7 21.7
02:00 1023 30.21 852 25.16 1.6 34.9 56 -6.2 20.9
02:05 1023 30.21 852 25.16 1.8 35.3 55 -6.2 20.9
02:10 1023 30.21 852 25.16 2.6 36.7 53 -6.1 21
02:15 1023 30.21 852 25.16 2.7 36.9 52 -6.1 21.1
02:20 1023 30.21 852 25.16 2.8 37 53 -5.9 21.4
02:25 1023 30.21 852 25.16 2.5 36.5 53 -6 21.1
02:30 1023 30.21 852 25.16 2.5 36.6 53 -6.1 20.9
02:35 1023 30.21 852 25.16 2.7 36.8 52 -6.3 20.7
02:40 1023 30.21 852 25.16 3.1 37.6 50 -6.4 20.4
02:45 1023 30.21 852 25.16 3.1 37.6 50 -6.2 20.8
02:50 1023 30.21 852 25.16 2.8 37.1 52 -6.1 21
02:55 1023 30.21 852 25.16 2.6 36.6 53 -6.1 21
03:00 1023 30.21 852 25.16 2 35.6 56 -6 21.2
03:05 1023 30.21 852 25.16 1 33.8 60 -6 21.2
03:10 1023 30.21 852 25.16 1 33.7 57 -6.7 20
03:15 1023 30.21 852 25.16 2.1 35.7 54 -6.2 20.9
03:20 1023 30.21 852 25.16 2.2 35.9 54 -6.1 21
03:25 1023 30.21 852 25.16 2.3 36.1 56 -5.6 21.9
03:30 1023 30.21 852 25.16 1.1 34 61 -5.7 21.8
03:35 1023 30.21 852 25.16 0.6 33 61 -6.1 21
03:40 1023 30.21 852 25.16 0.9 33.5 60 -6.1 21
03:45 1023 30.21 852 25.16 1.2 34.1 58 -6.2 20.9
03:50 1023 30.21 852 25.16 1.3 34.4 57 -6.3 20.7
03:55 1023 30.21 852 25.16 1.3 34.4 58 -6 21.2
04:00 1023 30.21 852 25.16 0.6 33 60 -6.3 20.7
04:05 1023 30.21 852 25.16 0.5 32.9 59 -6.6 20.1
04:10 1023 30.21 852 25.16 0.9 33.6 59 -6.1 21
04:15 1023 30.21 852 25.16 0.8 33.4 60 -6.2 20.8
04:20 1023 30.21 852 25.16 0.8 33.5 58 -6.4 20.4
04:25 1023 30.21 852 25.16 0.7 33.2 60 -6.3 20.6
04:30 1023 30.21 852 25.16 0.3 32.5 61 -6.3 20.7
04:35 1023 30.21 852 25.16 -0.1 31.8 61 -6.7 19.9
04:40 1023 30.21 852 25.16 0.7 33.2 59 -6.5 20.2
04:45 1023 30.21 852 25.16 0.7 33.3 58 -6.5 20.2
04:50 1023 30.21 852 25.16 0.8 33.4 60 -6.2 20.8
04:55 1023 30.21 852 25.16 0.5 32.8 61 -6.2 20.9
05:00 1023 30.21 852 25.16 0.4 32.7 60 -6.4 20.5
05:05 1023 30.21 852 25.16 0.9 33.6 58 -6.5 20.3
05:10 1023 30.21 852 25.16 1.3 34.3 56 -6.5 20.4
05:15 1023 30.21 852 25.16 1.1 34 58 -6.2 20.8
05:20 1023 30.21 852 25.16 0.6 33.1 60 -6.3 20.7
05:25 1023 30.21 852 25.16 0.4 32.7 61 -6.4 20.5
05:30 1023 30.21 852 25.16 0.1 32.3 61 -6.6 20.1
05:35 1023 30.21 852 25.16 0.3 32.6 60 -6.7 20
05:40 1023 30.21 852 25.16 0.3 32.5 60 -6.6 20.1
05:45 1023 30.21 852 25.16 0.2 32.3 61 -6.5 20.4
05:50 1023 30.21 852 25.16 0 32 62 -6.5 20.4
05:55 1023 30.21 852 25.16 0 32 62 -6.5 20.3
06:00 1023 30.21 852 25.16 0.3 32.5 60 -6.6 20
06:05 1023 30.21 852 25.16 0.2 32.4 61 -6.5 20.3
06:10 1023 30.21 852 25.16 0.3 32.6 60 -6.5 20.2
06:15 1023 30.21 852 25.16 0.2 32.3 60 -6.6 20.1
06:20 1023 30.21 852 25.16 0.3 32.6 60 -6.5 20.4
06:25 1023 30.21 852 25.16 0.4 32.8 60 -6.4 20.6
06:30 1023 30.21 852 25.16 0.4 32.7 60 -6.5 20.3
06:35 1023 30.21 852 25.16 0.4 32.7 60 -6.4 20.5
06:40 1023 30.21 852 25.16 0 32.1 61 -6.6 20.1
06:45 1023 30.21 852 25.16 0 32 61 -6.6 20.2
06:50 1023 30.21 852 25.16 0 32 61 -6.6 20.1
06:55 1023 30.21 852 25.16 0.1 32.2 60 -6.8 19.8
07:00 1023 30.21 852 25.16 0.1 32.2 60 -6.8 19.7
07:05 1023 30.21 852 25.16 0.2 32.4 60 -6.6 20
07:10 1023 30.21 852 25.16 0.2 32.4 60 -6.7 19.9
07:15 1023 30.21 852 25.16 0.5 32.8 59 -6.6 20.1
07:20 1023 30.21 852 25.16 0.6 33 58 -6.7 20
07:25 1023 30.21 852 25.16 0.5 33 59 -6.5 20.2
07:30 1023 30.21 852 25.16 0.3 32.5 60 -6.6 20
07:35 1023 30.21 852 25.16 -0.1 31.8 61 -6.8 19.8
07:40 1023 30.21 852 25.16 0 32.1 61 -6.6 20
07:45 1023 30.21 852 25.16 0.3 32.6 59 -6.8 19.8
07:50 1023 30.21 852 25.16 0.8 33.4 58 -6.7 20
07:55 1023 30.21 852 25.16 0.6 33.1 58 -6.6 20.1
08:00 1023 30.21 852 25.16 0.5 32.9 58 -6.7 19.9
08:05 1023 30.21 852 25.16 0.7 33.2 57 -6.8 19.8
08:10 1023 30.21 852 25.16 1.1 34 56 -6.8 19.8
08:15 1023 30.21 852 25.16 1.1 34.1 56 -6.6 20.1
08:20 1023 30.21 852 25.16 1.1 33.9 57 -6.6 20.1
08:25 1023 30.21 852 25.16 0.9 33.7 57 -6.7 20
08:30 1023 30.21 852 25.16 1.2 34.1 56 -6.8 19.8
08:35 1023 30.21 852 25.16 1.7 35 53 -6.8 19.8
08:40 1023 30.21 852 25.16 2.2 36 51 -6.8 19.8
08:45 1023 30.21 852 25.16 2.2 36 52 -6.7 19.9
08:50 1023 30.21 852 25.16 2.1 35.7 52 -6.7 19.9
08:55 1023 30.21 852 25.16 1.7 35.1 54 -6.5 20.4
09:00 1023 30.21 852 25.16 1.5 34.6 55 -6.5 20.3
09:05 1023 30.21 852 25.16 1.6 34.8 55 -6.6 20.1
09:10 1023 30.21 852 25.16 1.8 35.2 55 -6.4 20.5
09:15 1023 30.21 852 25.16 2.1 35.7 54 -6.3 20.7
09:20 1023 30.21 852 25.16 2.8 37 50 -6.5 20.2
09:25 1023 30.21 852 25.16 3.9 39 47 -6.5 20.3
09:30 1023 30.21 852 25.16 5.1 41.2 43 -6.5 20.4
09:35 1023 30.21 852 25.16 6 42.8 41 -6.3 20.7
09:40 1023 30.21 852 25.16 6.4 43.6 40 -6.2 20.9
09:45 1023 30.21 852 25.16 6.5 43.8 41 -5.9 21.4
09:50 1023 30.21 852 25.16 6.3 43.3 42 -5.8 21.6
09:55 1023 30.21 852 25.16 5.9 42.6 42 -6.1 21.1
10:00 1023 30.21 852 25.16 5.9 42.7 41 -6.5 20.3
10:05 1023 30.21 852 25.16 6.6 43.9 39 -6.3 20.6
10:10 1023 30.21 852 25.16 6.8 44.2 39 -6.3 20.7
10:15 1023 30.21 852 25.16 6.2 43.2 40 -6.3 20.7
10:20 1023 30.21 852 25.16 6.5 43.7 39 -6.6 20.1
10:25 1023 30.21 852 25.16 7.3 45.2 37 -6.5 20.4
10:30 1023 30.21 852 25.16 8 46.4 35 -6.6 20.1
10:35 1023 30.21 852 25.16 8.2 46.7 35 -6.3 20.7
10:40 1023 30.21 852 25.16 7.9 46.2 36 -6.2 20.9
10:45 1023 30.21 852 25.16 7.7 45.9 38 -5.9 21.5
10:50 1023 30.21 852 25.16 7.9 46.1 37 -6.1 21
10:55 1023 30.21 852 25.16 7.9 46.2 38 -5.6 21.9
11:00 1023 30.21 852 25.16 7.5 45.5 39 -5.7 21.7
11:05 1023 30.21 852 25.16 7.9 46.2 38 -5.4 22.2
11:10 1023 30.21 852 25.16 8.5 47.3 38 -5 23
11:15 1023 30.21 852 25.16 8.5 47.3 38 -5.1 22.9
11:20 1023 30.21 852 25.16 8.7 47.7 37 -5.2 22.7
11:25 1022 30.18 852 25.16 8.9 48 37 -5 23
11:30 1022 30.18 852 25.16 9 48.2 38 -4.5 23.9
11:35 1022 30.18 852 25.16 8.9 48 37 -4.9 23.3
11:40 1022 30.18 851 25.13 8.8 47.9 38 -4.8 23.4
11:45 1022 30.18 851 25.13 9 48.2 38 -4.7 23.6
11:50 1022 30.18 851 25.13 9.3 48.7 36 -4.9 23.2
11:55 1022 30.18 851 25.13 9.3 48.8 37 -4.8 23.4
12:00 1022 30.18 851 25.13 9.9 49.8 35 -4.7 23.6
12:05 1022 30.18 851 25.13 10.7 51.2 34 -4.6 23.7
12:10 1022 30.18 851 25.13 10.5 50.8 35 -4.1 24.6
12:15 1022 30.18 851 25.13 10.2 50.3 36 -4.2 24.5
12:20 1022 30.18 851 25.13 9.9 49.8 36 -4.4 24.2
12:25 1022 30.18 851 25.13 10.1 50.1 36 -4.4 24.1
12:30 1022 30.18 851 25.13 10.2 50.4 35 -4.4 24.2
12:35 1022 30.18 851 25.13 10.2 50.4 36 -4.3 24.2
12:40 1022 30.18 851 25.13 10.6 51 34 -4.5 24
12:45 1022 30.18 851 25.13 10.8 51.5 35 -3.8 25.1
12:50 1022 30.18 851 25.13 10.8 51.5 35 -3.8 25.1
12:55 1022 30.18 851 25.13 10.5 50.9 37 -3.6 25.6
13:00 1021 30.15 851 25.13 10.7 51.3 37 -3.3 26.1
13:05 1021 30.15 851 25.13 10.8 51.4 37 -3.3 26
13:10 1021 30.15 850 25.1 10.5 51 39 -2.8 27
13:15 1021 30.15 851 25.13 9.9 49.7 40 -3.2 26.2
13:20 1021 30.15 850 25.1 10.1 50.1 38 -3.5 25.6
13:25 1021 30.15 850 25.1 10.2 50.4 39 -3.1 26.3
13:30 1021 30.15 850 25.1 10.4 50.7 37 -3.6 25.5
13:35 1021 30.15 850 25.1 10.7 51.2 37 -3.2 26.2
13:40 1021 30.15 850 25.1 10.5 51 37 -3.5 25.8
13:45 1021 30.15 850 25.1 10.7 51.2 38 -3.1 26.4
13:50 1021 30.15 850 25.1 10.8 51.4 35 -3.8 25.1
13:55 1021 30.15 850 25.1 11 51.8 37 -3 26.5
14:00 1021 30.15 850 25.1 11 51.8 38 -2.9 26.8
14:05 1021 30.15 850 25.1 11 51.7 37 -3 26.6
14:10 1021 30.15 850 25.1 11.4 52.5 36 -3.3 26.1
14:15 1021 30.15 850 25.1 11.7 53.1 34 -3.6 25.5
14:20 1021 30.15 850 25.1 11.6 52.9 35 -3.2 26.3
14:25 1021 30.15 850 25.1 10.9 51.7 36 -3.4 25.9
14:30 1021 30.15 850 25.1 11 51.8 36 -3.5 25.6
14:35 1021 30.15 850 25.1 11 51.8 36 -3.4 26
14:40 1021 30.15 850 25.1 11 51.8 35 -3.7 25.4
14:45 1021 30.15 850 25.1 11.1 52.1 36 -3.2 26.2
14:50 1021 30.15 850 25.1 11.3 52.4 36 -3.3 26.1
14:55 1021 30.15 850 25.1 11.2 52.2 36 -3.3 26
15:00 1021 30.15 850 25.1 11.4 52.5 35 -3.6 25.5
15:05 1021 30.15 850 25.1 11.3 52.3 35 -3.5 25.8
15:10 1021 30.15 850 25.1 11.6 52.8 35 -3.4 25.8
15:15 1021 30.15 850 25.1 11.8 53.2 34 -3.7 25.3
15:20 1021 30.15 850 25.1 11.7 53 34 -3.7 25.3
15:25 1021 30.15 850 25.1 11.8 53.3 33 -3.9 25.1
15:30 1021 30.15 850 25.1 11.4 52.6 33 -4.2 24.4
15:35 1020 30.12 850 25.1 11.2 52.2 32 -4.7 23.6
15:40 1020 30.12 850 25.1 11 51.9 33 -4.6 23.6
15:45 1020 30.12 850 25.1 11.3 52.3 32 -4.7 23.5
15:50 1020 30.12 850 25.1 11.6 52.8 31 -4.8 23.4
15:55 1020 30.12 850 25.1 11.6 52.9 32 -4.5 23.9
16:00 1020 30.12 850 25.1 11.8 53.2 32 -4.5 23.9
16:05 1020 30.12 850 25.1 11.9 53.5 31 -4.5 23.9
16:10 1020 30.12 850 25.1 11.6 52.9 35 -3.5 25.8
16:15 1020 30.12 850 25.1 11 51.8 37 -3.2 26.3
16:20 1020 30.12 850 25.1 10.6 51.1 38 -3.2 26.3
16:25 1020 30.12 849 25.07 10.2 50.3 39 -3.1 26.4
16:30 1020 30.12 849 25.07 9.5 49.1 40 -3.4 25.9
16:35 1020 30.12 849 25.07 9.3 48.8 40 -3.5 25.7
16:40 1020 30.12 849 25.07 9 48.2 44 -2.6 27.3
16:45 1020 30.12 849 25.07 8.5 47.2 46 -2.4 27.7
16:50 1020 30.12 849 25.07 8.1 46.6 45 -3 26.7
16:55 1020 30.12 849 25.07 7.8 46 46 -3 26.6
17:00 1020 30.12 849 25.07 7.1 44.8 48 -3.3 26.1
17:05 1020 30.12 849 25.07 6.9 44.4 45 -4.3 24.2
17:10 1020 30.12 849 25.07 6.4 43.6 45 -4.6 23.8
17:15 1020 30.12 850 25.1 5.8 42.5 46 -4.8 23.4
17:20 1020 30.12 850 25.1 5.3 41.5 47 -5.2 22.7
17:25 1020 30.12 850 25.1 5.2 41.3 46 -5.5 22.1
17:30 1020 30.12 850 25.1 5.4 41.8 45 -5.6 21.9
17:35 1020 30.12 850 25.1 5.5 41.9 44 -5.7 21.8
17:40 1020 30.12 849 25.07 5.5 41.9 44 -5.8 21.6
17:45 1020 30.12 849 25.07 5.2 41.3 45 -5.8 21.5
17:50 1020 30.12 850 25.1 4.9 40.8 46 -5.7 21.8
17:55 1020 30.12 850 25.1 4.6 40.3 49 -5.3 22.4
18:00 1020 30.12 850 25.1 4.2 39.5 49 -5.5 22
18:05 1020 30.12 850 25.1 4.1 39.4 50 -5.5 22.1
18:10 1020 30.12 850 25.1 3.7 38.6 49 -6 21.1
18:15 1020 30.12 850 25.1 3.6 38.5 48 -6.5 20.3
18:20 1020 30.12 850 25.1 4 39.3 45 -6.8 19.7
18:25 1020 30.12 850 25.1 4.2 39.5 47 -6.1 21.1
18:30 1020 30.12 850 25.1 3.8 38.8 48 -6.4 20.6
18:35 1020 30.12 850 25.1 3.6 38.4 49 -6.2 20.8
18:40 1020 30.12 850 25.1 3 37.4 50 -6.5 20.3
18:45 1020 30.12 850 25.1 3.4 38.1 50 -6.1 21
18:50 1020 30.12 850 25.1 4.3 39.8 44 -6.8 19.8
18:55 1020 30.12 850 25.1 4.8 40.7 42 -6.9 19.6
19:00 1020 30.12 850 25.1 5 40.9 43 -6.7 19.9
19:05 1020 30.12 850 25.1 4.6 40.2 44 -6.5 20.2
19:10 1020 30.12 850 25.1 4.1 39.4 45 -6.7 20
19:15 1020 30.12 850 25.1 4 39.3 45 -6.8 19.7
19:20 1020 30.12 850 25.1 3.8 38.8 47 -6.6 20.1
19:25 1020 30.12 850 25.1 3.8 38.9 45 -7.2 19.1
19:30 1020 30.12 849 25.07 4.2 39.5 44 -7.1 19.2
19:35 1020 30.12 849 25.07 3.8 38.8 46 -6.9 19.5
19:40 1020 30.12 849 25.07 3.6 38.4 45 -7.3 18.9
19:45 1020 30.12 850 25.1 3.8 38.8 44 -7.2 19
19:50 1020 30.12 850 25.1 3.6 38.6 45 -7.2 19.1
19:55 1020 30.12 850 25.1 3.5 38.3 46 -7.1 19.1
20:00 1020 30.12 850 25.1 3.4 38.1 44 -7.7 18.2
20:05 1020 30.12 850 25.1 3.4 38.1 45 -7.4 18.7
20:10 1020 30.12 850 25.1 3.2 37.8 47 -7.1 19.2
20:15 1020 30.12 850 25.1 3 37.4 46 -7.5 18.5
20:20 1020 30.12 850 25.1 3.2 37.8 45 -7.5 18.6
20:25 1020 30.12 850 25.1 3.3 38 46 -7.1 19.1
20:30 1020 30.12 850 25.1 3.2 37.8 49 -6.6 20.2
20:35 1020 30.12 850 25.1 3.1 37.7 48 -6.8 19.8
20:40 1020 30.12 850 25.1 3.4 38.1 47 -6.9 19.6
20:45 1020 30.12 850 25.1 3.3 37.9 47 -6.9 19.5
20:50 1020 30.12 850 25.1 2.8 37 49 -6.9 19.6
20:55 1020 30.12 850 25.1 2.3 36.2 50 -7 19.4
21:00 1020 30.12 850 25.1 2 35.5 51 -7 19.3
21:05 1020 30.12 850 25.1 2 35.6 49 -7.5 18.5
21:10 1020 30.12 850 25.1 2.5 36.5 47 -7.7 18.1
21:15 1020 30.12 849 25.07 3.5 38.3 43 -7.8 17.9
21:20 1020 30.12 849 25.07 3.7 38.6 43 -7.7 18.1
21:25 1020 30.12 849 25.07 3.7 38.7 44 -7.4 18.6
21:30 1020 30.12 849 25.07 3.5 38.2 44 -7.6 18.3
21:35 1020 30.12 849 25.07 3.1 37.7 47 -7.1 19.2
21:40 1020 30.12 849 25.07 2.6 36.6 48 -7.2 19
21:45 1020 30.12 849 25.07 2.2 36 50 -7.2 19
21:50 1020 30.12 849 25.07 1.9 35.4 52 -7 19.4
21:55 1020 30.12 849 25.07 1.7 35 51 -7.3 18.9
22:00 1020 30.12 849 25.07 2.2 35.9 48 -7.6 18.3
22:05 1020 30.12 849 25.07 2.3 36.1 49 -7.3 18.9
22:10 1020 30.12 849 25.07 2.2 35.9 49 -7.5 18.6
22:15 1020 30.12 849 25.07 2.4 36.4 48 -7.5 18.5
22:20 1020 30.12 849 25.07 2.7 36.8 46 -7.9 17.8
22:25 1020 30.12 849 25.07 3 37.4 45 -7.9 17.8
22:30 1020 30.12 849 25.07 3.1 37.6 46 -7.6 18.4
22:35 1020 30.12 849 25.07 3 37.4 46 -7.6 18.2
22:40 1020 30.12 849 25.07 2.7 36.9 47 -7.4 18.7
22:45 1020 30.12 849 25.07 2.3 36.2 48 -7.5 18.5
22:50 1020 30.12 849 25.07 2.4 36.4 48 -7.4 18.6
22:55 1020 30.12 849 25.07 2.6 36.7 46 -7.8 18
23:00 1020 30.12 849 25.07 2.6 36.7 48 -7.3 18.9
23:05 1020 30.12 849 25.07 1.9 35.5 50 -7.3 18.8
23:10 1020 30.12 849 25.07 1.9 35.5 51 -7.2 19
23:15 1020 30.12 849 25.07 1.9 35.5 53 -6.7 20
23:20 1020 30.12 849 25.07 1.6 34.8 55 -6.6 20.2
23:25 1020 30.12 849 25.07 1.4 34.5 56 -6.5 20.2
23:30 1020 30.12 849 25.07 1.2 34.2 56 -6.7 20
23:35 1020 30.12 849 25.07 0.9 33.6 57 -6.7 20
23:40 1020 30.12 849 25.07 1 33.8 56 -6.8 19.8
23:45 1020 30.12 849 25.07 1.4 34.5 54 -6.8 19.7
23:50 1020 30.12 849 25.07 1.6 34.8 53 -7.1 19.2
23:55 1020 30.12 849 25.07 1.5 34.8 52 -7.2 19
24:00 1020 30.12 849 25.07 1.4 34.5 52 -7.3 18.9